Time;durP1;ratioP1;P1;durP2;ratioP2;P2;SDS_P1;SDS_P2;PMS_P1;PMS_P2;Temp;Humidity;BMP_temperature;BMP_pressure;BME280_temperature;BME280_humidity;BME280_pressure;Samples;Min_cycle;Max_cycle;Signal;HPM_P1;HPM_P2
2022/09/18 00:01:08;;;;;;;9.35;2.35;;;10.10;99.90;;;;;;5029425;28;20341;-76
2022/09/18 00:03:34;;;;;;;2.63;1.48;;;10.10;99.90;;;;;;5031236;28;20064;-77
2022/09/18 00:06:09;;;;;;;5.95;2.47;;;10.00;99.90;;;;;;5036988;28;20111;-76
2022/09/18 00:08:34;;;;;;;6.20;2.30;;;10.00;99.90;;;;;;5034449;28;20059;-76
2022/09/18 00:11:04;;;;;;;4.28;1.98;;;10.00;99.90;;;;;;5035442;28;20048;-76
2022/09/18 00:13:32;;;;;;;7.40;2.42;;;10.10;99.90;;;;;;5023104;28;20118;-76
2022/09/18 00:15:57;;;;;;;7.57;2.28;;;10.10;99.90;;;;;;5028229;28;20052;-77
2022/09/18 00:18:23;;;;;;;4.32;1.30;;;10.00;99.90;;;;;;5038350;28;20064;-77
2022/09/18 00:20:49;;;;;;;6.35;2.20;;;10.00;99.90;;;;;;5039498;28;20064;-76
2022/09/18 00:23:14;;;;;;;8.80;2.47;;;10.00;99.90;;;;;;5039561;28;20099;-76
2022/09/18 00:25:40;;;;;;;14.50;2.63;;;9.90;99.90;;;;;;5037780;28;20061;-76
2022/09/18 00:28:06;;;;;;;7.53;2.22;;;9.90;99.90;;;;;;5040522;28;20048;-77
2022/09/18 00:30:32;;;;;;;5.03;1.90;;;10.00;99.90;;;;;;5029744;28;20794;-76
2022/09/18 00:32:58;;;;;;;4.07;1.85;;;10.00;99.90;;;;;;5039659;28;20044;-77
2022/09/18 00:35:23;;;;;;;4.20;2.03;;;10.00;99.90;;;;;;5039207;28;20754;-77
2022/09/18 00:37:49;;;;;;;7.00;1.80;;;10.00;99.90;;;;;;5039850;28;20171;-76
2022/09/18 00:40:15;;;;;;;7.25;2.30;;;10.10;99.90;;;;;;5039284;28;20377;-77
2022/09/18 00:42:42;;;;;;;5.00;1.70;;;10.10;99.90;;;;;;5040808;28;20048;-78
2022/09/18 00:45:12;;;;;;;2.92;1.35;;;10.10;99.90;;;;;;5041406;28;20083;-77
2022/09/18 00:47:43;;;;;;;4.80;1.90;;;10.10;99.90;;;;;;5039341;28;20048;-76
2022/09/18 00:50:22;;;;;;;6.57;1.85;;;10.10;99.90;;;;;;5041400;28;20052;-76
2022/09/18 00:53:00;;;;;;;8.43;1.80;;;10.10;99.90;;;;;;5039628;28;20862;-77
2022/09/18 00:55:31;;;;;;;13.18;2.20;;;10.10;99.90;;;;;;5037349;28;20127;-77
2022/09/18 00:58:00;;;;;;;5.82;1.75;;;10.00;99.90;;;;;;5033271;28;20285;-78
2022/09/18 01:00:28;;;;;;;3.58;1.73;;;10.00;99.90;;;;;;5038511;28;20052;-77
2022/09/18 01:02:54;;;;;;;7.40;1.73;;;10.00;99.90;;;;;;5038679;28;20067;-76
2022/09/18 01:05:52;;;;;;;3.00;1.52;;;10.00;99.90;;;;;;5039340;28;20045;-77
2022/09/18 01:08:36;;;;;;;4.57;1.45;;;10.00;99.90;;;;;;5030535;28;20087;-76
2022/09/18 01:11:24;;;;;;;11.05;1.90;;;10.10;99.90;;;;;;5040594;28;20052;-77
2022/09/18 01:14:11;;;;;;;10.65;2.20;;;10.20;99.90;;;;;;5038267;28;20068;-76
2022/09/18 01:17:01;;;;;;;6.75;2.13;;;10.10;99.90;;;;;;5040226;28;20072;-77
2022/09/18 01:19:42;;;;;;;3.53;1.95;;;10.10;99.90;;;;;;5036390;28;20045;-77
2022/09/18 01:22:29;;;;;;;4.03;1.45;;;10.10;99.90;;;;;;5038220;28;20148;-77
2022/09/18 01:25:19;;;;;;;5.30;1.80;;;10.10;99.90;;;;;;5039404;28;20164;-77
2022/09/18 01:28:07;;;;;;;5.45;1.70;;;10.10;99.90;;;;;;5035005;28;20201;-76
2022/09/18 01:30:37;;;;;;;9.15;2.28;;;10.10;99.90;;;;;;5038195;28;20539;-77
2022/09/18 01:33:09;;;;;;;5.22;1.63;;;10.10;99.90;;;;;;5039112;28;20060;-75
2022/09/18 01:35:51;;;;;;;6.32;2.58;;;10.10;99.90;;;;;;5037617;28;20089;-76
2022/09/18 01:38:31;;;;;;;6.40;1.92;;;10.00;99.90;;;;;;5033242;28;20048;-76
2022/09/18 01:41:12;;;;;;;5.70;1.60;;;10.00;99.90;;;;;;5038406;28;20280;-77
2022/09/18 01:43:39;;;;;;;4.00;1.85;;;10.00;99.90;;;;;;5036177;28;20048;-76
2022/09/18 01:46:10;;;;;;;6.90;1.65;;;10.00;99.90;;;;;;5037466;28;20177;-76
2022/09/18 01:49:08;;;;;;;4.97;1.88;;;10.00;99.90;;;;;;5034028;28;20087;-76
2022/09/18 01:52:01;;;;;;;2.58;1.63;;;10.00;99.90;;;;;;5030965;28;20143;-76
2022/09/18 01:54:32;;;;;;;2.55;1.90;;;10.00;99.90;;;;;;5036684;28;20056;-77
2022/09/18 01:57:12;;;;;;;4.93;2.75;;;10.00;99.90;;;;;;5038400;28;20416;-75
2022/09/18 02:00:08;;;;;;;4.25;1.80;;;10.00;99.90;;;;;;5038403;28;20151;-76
2022/09/18 02:03:01;;;;;;;5.85;1.70;;;9.90;99.90;;;;;;5036217;28;20456;-76
2022/09/18 02:05:32;;;;;;;5.47;1.90;;;9.90;99.90;;;;;;5032305;28;20048;-76
2022/09/18 02:08:23;;;;;;;4.68;2.28;;;10.00;99.90;;;;;;5050651;28;20041;-75
2022/09/18 02:10:54;;;;;;;4.28;1.60;;;9.90;99.90;;;;;;5036075;28;20045;-75
2022/09/18 02:13:25;;;;;;;4.60;1.75;;;9.90;99.90;;;;;;5039234;28;20554;-75
2022/09/18 02:15:55;;;;;;;4.47;2.33;;;9.90;99.90;;;;;;5038468;28;20041;-75
2022/09/18 02:18:28;;;;;;;5.00;2.92;;;9.90;99.90;;;;;;5037377;28;20056;-76
2022/09/18 02:20:56;;;;;;;6.65;1.70;;;9.90;99.90;;;;;;5039529;28;20527;-75
2022/09/18 02:23:23;;;;;;;4.75;1.95;;;9.90;99.90;;;;;;5038215;28;20049;-76
2022/09/18 02:25:54;;;;;;;5.88;1.50;;;9.90;99.90;;;;;;5039643;28;20061;-75
2022/09/18 02:28:23;;;;;;;6.47;2.08;;;9.90;99.90;;;;;;5039168;28;20041;-75
2022/09/18 02:30:48;;;;;;;2.90;1.42;;;10.00;99.90;;;;;;5038668;28;20072;-75
2022/09/18 02:33:29;;;;;;;5.47;1.60;;;10.00;99.90;;;;;;5036529;28;20068;-76
2022/09/18 02:36:14;;;;;;;9.95;1.98;;;10.00;99.90;;;;;;5038675;28;20087;-75
2022/09/18 02:39:21;;;;;;;12.05;2.53;;;10.10;99.90;;;;;;5033959;28;20056;-75
2022/09/18 02:41:53;;;;;;;4.75;1.95;;;10.10;99.90;;;;;;4988498;28;20151;-76
2022/09/18 02:44:25;;;;;;;6.10;2.10;;;10.10;99.90;;;;;;5035981;28;20055;-75
2022/09/18 02:47:07;;;;;;;8.32;2.20;;;10.10;99.90;;;;;;5038499;28;20055;-75
2022/09/18 02:49:38;;;;;;;6.60;2.05;;;10.00;99.90;;;;;;5038797;28;20854;-74
2022/09/18 02:52:24;;;;;;;8.98;2.22;;;10.10;99.90;;;;;;5037790;28;20147;-75
2022/09/18 02:55:08;;;;;;;7.85;2.42;;;10.00;99.90;;;;;;5037546;28;20036;-75
2022/09/18 02:57:42;;;;;;;10.38;2.95;;;10.10;99.90;;;;;;5034794;28;20134;-75
2022/09/18 03:00:12;;;;;;;4.32;1.88;;;10.10;99.90;;;;;;5034935;28;20049;-77
2022/09/18 03:02:38;;;;;;;8.68;2.33;;;10.10;99.90;;;;;;5036873;28;20162;-75
2022/09/18 03:05:04;;;;;;;7.15;2.45;;;10.10;99.90;;;;;;5037377;28;20492;-75
2022/09/18 03:07:30;;;;;;;9.23;2.35;;;10.10;99.90;;;;;;5038104;28;20040;-75
2022/09/18 03:09:56;;;;;;;4.03;2.33;;;10.20;99.90;;;;;;5037078;28;20055;-75
2022/09/18 03:12:21;;;;;;;4.18;2.00;;;10.20;99.90;;;;;;5038607;28;20056;-75
2022/09/18 03:14:47;;;;;;;8.10;2.65;;;10.30;99.90;;;;;;5037999;28;20051;-74
2022/09/18 03:17:13;;;;;;;9.77;1.92;;;10.30;99.90;;;;;;5037313;28;20084;-75
2022/09/18 03:19:38;;;;;;;7.45;2.10;;;10.30;99.90;;;;;;5037132;28;20468;-76
2022/09/18 03:22:04;;;;;;;3.47;1.80;;;10.30;99.90;;;;;;5038108;28;20107;-76
2022/09/18 03:24:30;;;;;;;8.95;2.20;;;10.30;99.90;;;;;;5037680;28;20088;-76
2022/09/18 03:26:56;;;;;;;3.58;2.03;;;10.40;99.90;;;;;;5037264;28;20049;-76
2022/09/18 03:29:22;;;;;;;4.53;1.95;;;10.40;99.90;;;;;;5036046;28;20052;-76
2022/09/18 03:31:47;;;;;;;3.97;2.47;;;10.50;99.90;;;;;;5035783;28;20059;-76
2022/09/18 03:34:13;;;;;;;5.88;2.22;;;10.50;99.90;;;;;;5037805;28;20115;-77
2022/09/18 03:36:39;;;;;;;4.30;2.05;;;10.50;99.90;;;;;;5035627;28;20041;-77
2022/09/18 03:39:04;;;;;;;5.20;1.77;;;10.50;99.90;;;;;;5038349;28;20891;-77
2022/09/18 03:41:30;;;;;;;5.30;2.03;;;10.50;99.90;;;;;;5035840;28;20037;-77
2022/09/18 03:43:56;;;;;;;5.95;1.58;;;10.60;99.90;;;;;;5029978;28;20045;-77
2022/09/18 03:46:22;;;;;;;7.13;1.95;;;10.50;99.90;;;;;;5034321;28;20053;-77
2022/09/18 03:48:51;;;;;;;7.75;1.95;;;10.60;99.90;;;;;;5035702;28;20777;-76
2022/09/18 03:51:20;;;;;;;5.82;1.85;;;10.50;99.90;;;;;;5031029;28;20495;-77
2022/09/18 03:53:47;;;;;;;5.13;1.65;;;10.50;99.90;;;;;;5037483;28;20059;-76
2022/09/18 03:56:14;;;;;;;5.15;1.90;;;10.50;99.90;;;;;;5036364;28;20056;-77
2022/09/18 03:58:40;;;;;;;3.53;1.50;;;10.50;99.90;;;;;;5035588;28;20041;-76
2022/09/18 04:01:06;;;;;;;5.18;2.40;;;10.50;99.90;;;;;;5037222;28;20041;-78
2022/09/18 04:03:33;;;;;;;5.50;2.40;;;10.50;99.90;;;;;;5036163;28;20102;-77
2022/09/18 04:05:59;;;;;;;9.05;2.03;;;10.50;99.90;;;;;;5036777;28;20056;-77
2022/09/18 04:08:25;;;;;;;5.75;1.92;;;10.50;99.90;;;;;;5037035;28;20056;-76
2022/09/18 04:10:51;;;;;;;6.78;1.42;;;10.40;99.90;;;;;;5036384;28;20144;-77
2022/09/18 04:13:17;;;;;;;4.00;1.30;;;10.50;99.90;;;;;;5036116;28;20068;-77
2022/09/18 04:15:48;;;;;;;1.90;1.17;;;10.50;99.90;;;;;;5036261;28;20302;-77
2022/09/18 04:18:15;;;;;;;4.97;1.52;;;10.50;99.90;;;;;;5035382;28;20143;-76
2022/09/18 04:20:41;;;;;;;3.90;1.50;;;10.50;99.90;;;;;;5033353;28;20053;-76
2022/09/18 04:23:06;;;;;;;6.65;1.90;;;10.40;99.90;;;;;;5036272;28;20052;-76
2022/09/18 04:25:32;;;;;;;3.80;2.25;;;10.50;99.90;;;;;;5037529;28;20644;-77
2022/09/18 04:27:57;;;;;;;2.30;1.15;;;10.50;99.90;;;;;;5036457;28;20052;-77
2022/09/18 04:30:23;;;;;;;3.40;1.15;;;10.50;99.90;;;;;;5037272;28;20091;-77
2022/09/18 04:32:49;;;;;;;4.30;1.10;;;10.50;99.90;;;;;;5035860;28;20049;-77
2022/09/18 04:35:15;;;;;;;6.90;1.38;;;10.40;99.90;;;;;;5037709;28;20049;-76
2022/09/18 04:37:42;;;;;;;3.75;2.10;;;10.50;99.90;;;;;;5037277;28;20091;-76
2022/09/18 04:40:09;;;;;;;4.70;1.27;;;10.40;99.90;;;;;;5036147;28;20717;-76
2022/09/18 04:42:35;;;;;;;5.32;1.67;;;10.40;99.90;;;;;;5034148;28;20049;-77
2022/09/18 04:45:02;;;;;;;6.63;1.38;;;10.40;99.90;;;;;;5036885;28;20079;-76
2022/09/18 04:47:29;;;;;;;4.63;2.22;;;10.40;99.90;;;;;;5036387;28;20873;-77
2022/09/18 04:49:54;;;;;;;2.53;1.65;;;10.40;99.90;;;;;;5033765;28;20048;-77
2022/09/18 04:52:20;;;;;;;3.35;1.33;;;10.40;99.90;;;;;;5014141;28;20050;-77
2022/09/18 04:54:46;;;;;;;3.25;1.52;;;10.40;99.90;;;;;;5033879;28;20060;-78
2022/09/18 04:57:11;;;;;;;8.10;1.50;;;10.30;99.90;;;;;;5037363;28;20523;-77
2022/09/18 04:59:37;;;;;;;4.50;1.33;;;10.30;99.90;;;;;;5032584;28;20901;-77
2022/09/18 05:02:03;;;;;;;4.72;1.65;;;10.30;99.90;;;;;;5051670;28;20061;-77
2022/09/18 05:04:28;;;;;;;4.57;1.73;;;10.30;99.90;;;;;;5039127;28;20147;-77
2022/09/18 05:06:54;;;;;;;6.32;1.30;;;10.30;99.90;;;;;;5037555;28;20041;-77
2022/09/18 05:09:20;;;;;;;2.92;1.23;;;10.30;99.90;;;;;;5040315;28;20044;-77
2022/09/18 05:11:45;;;;;;;5.07;1.30;;;10.30;99.90;;;;;;5026784;28;20832;-76
2022/09/18 05:14:11;;;;;;;3.13;1.35;;;10.30;99.90;;;;;;5038530;28;20548;-76
2022/09/18 05:16:37;;;;;;;2.08;1.30;;;10.30;99.90;;;;;;5035599;28;20069;-78
2022/09/18 05:19:03;;;;;;;5.70;1.27;;;10.30;99.90;;;;;;5036983;28;20572;-77
2022/09/18 05:21:28;;;;;;;1.73;1.02;;;10.40;99.90;;;;;;5037612;28;20158;-77
2022/09/18 05:23:54;;;;;;;2.95;1.20;;;10.40;99.90;;;;;;5037149;28;20067;-76
2022/09/18 05:26:20;;;;;;;3.08;1.35;;;10.40;99.90;;;;;;5038800;28;20048;-77
2022/09/18 05:28:48;;;;;;;7.70;2.10;;;10.40;99.90;;;;;;5037509;28;20048;-77
2022/09/18 05:31:15;;;;;;;6.20;1.20;;;10.50;99.90;;;;;;5017977;28;20049;-77
2022/09/18 05:33:41;;;;;;;3.35;1.55;;;10.40;99.90;;;;;;5037350;28;20045;-77
2022/09/18 05:36:07;;;;;;;4.35;1.38;;;10.50;99.90;;;;;;5039095;28;20056;-77
2022/09/18 05:38:33;;;;;;;4.55;1.38;;;10.50;99.90;;;;;;5038088;28;20490;-77
2022/09/18 05:41:00;;;;;;;5.05;1.83;;;10.50;99.90;;;;;;5039365;28;20894;-77
2022/09/18 05:43:27;;;;;;;4.53;2.42;;;10.60;99.90;;;;;;5034769;28;20041;-77
2022/09/18 05:45:53;;;;;;;7.00;1.30;;;10.50;99.90;;;;;;5038516;28;20044;-77
2022/09/18 05:48:18;;;;;;;4.50;1.45;;;10.50;99.90;;;;;;5038072;28;20041;-77
2022/09/18 05:50:44;;;;;;;9.13;1.25;;;10.50;99.90;;;;;;5037404;28;20049;-77
2022/09/18 05:53:15;;;;;;;5.13;1.42;;;10.60;99.90;;;;;;5037308;28;20563;-76
2022/09/18 05:55:41;;;;;;;1.05;0.80;;;10.60;99.90;;;;;;5038566;28;20044;-77
2022/09/18 05:58:14;;;;;;;5.35;1.50;;;10.60;99.90;;;;;;5039004;28;20060;-76
2022/09/18 06:00:40;;;;;;;;;;;10.60;99.90;;;;;;5037052;28;20931;-76
2022/09/18 06:03:08;;;;;;;1.75;1.10;;;10.60;99.90;;;;;;5037945;28;19978;-76
2022/09/18 06:05:36;;;;;;;4.22;1.63;;;10.60;99.90;;;;;;5036360;28;20045;-76
2022/09/18 06:08:04;;;;;;;3.83;1.30;;;10.70;99.90;;;;;;5037820;28;20114;-77
2022/09/18 06:10:31;;;;;;;4.50;1.05;;;10.70;99.90;;;;;;5038753;28;20139;-77
2022/09/18 06:13:04;;;;;;;2.08;1.17;;;10.80;99.90;;;;;;5036097;28;20485;-77
2022/09/18 06:15:30;;;;;;;1.88;1.05;;;10.80;99.90;;;;;;5035676;28;20040;-78
2022/09/18 06:17:56;;;;;;;3.67;1.33;;;10.80;99.90;;;;;;5037366;28;20676;-77
2022/09/18 06:20:23;;;;;;;2.72;1.05;;;10.80;99.90;;;;;;5036144;28;20056;-77
2022/09/18 06:22:48;;;;;;;6.35;1.30;;;10.80;99.90;;;;;;5037628;28;20072;-77
2022/09/18 06:25:18;;;;;;;2.95;1.10;;;10.90;99.90;;;;;;5034810;28;20588;-77
2022/09/18 06:27:43;;;;;;;3.05;1.55;;;10.90;99.90;;;;;;5028357;28;20053;-75
2022/09/18 06:30:10;;;;;;;4.25;1.40;;;10.90;99.90;;;;;;5037209;28;20049;-75
2022/09/18 06:32:35;;;;;;;2.75;1.25;;;10.90;99.90;;;;;;5037167;28;20045;-77
2022/09/18 06:35:01;;;;;;;4.07;1.92;;;10.90;99.90;;;;;;5023185;28;20060;-76
2022/09/18 06:37:27;;;;;;;7.95;1.65;;;10.90;99.90;;;;;;5038195;28;20145;-76
2022/09/18 06:39:53;;;;;;;3.50;1.55;;;10.90;99.90;;;;;;5022625;28;20982;-76
2022/09/18 06:42:18;;;;;;;4.78;1.45;;;11.00;99.90;;;;;;5027971;28;20809;-76
2022/09/18 06:44:44;;;;;;;3.58;1.20;;;11.00;99.90;;;;;;5037002;28;20053;-77
2022/09/18 06:47:10;;;;;;;2.78;1.15;;;11.10;99.90;;;;;;5035517;28;20156;-76
2022/09/18 06:49:35;;;;;;;5.88;1.45;;;11.10;99.90;;;;;;5035700;28;20049;-76
2022/09/18 06:52:01;;;;;;;6.13;1.73;;;11.10;99.90;;;;;;5034383;28;20055;-77
2022/09/18 06:54:27;;;;;;;3.35;1.90;;;11.20;99.90;;;;;;5035676;28;20084;-75
2022/09/18 06:56:52;;;;;;;5.18;1.40;;;11.20;99.90;;;;;;5036429;28;20053;-76
2022/09/18 06:59:18;;;;;;;6.13;1.65;;;11.30;99.90;;;;;;5034535;28;20045;-76
2022/09/18 07:01:46;;;;;;;5.95;1.35;;;11.30;99.90;;;;;;5034944;28;20045;-76
2022/09/18 07:04:12;;;;;;;3.58;1.42;;;11.30;99.90;;;;;;5034921;28;20075;-76
2022/09/18 07:06:38;;;;;;;5.10;1.33;;;11.40;99.90;;;;;;5032351;28;20567;-76
2022/09/18 07:09:03;;;;;;;3.97;2.22;;;11.40;99.90;;;;;;5034631;28;20756;-76
2022/09/18 07:11:30;;;;;;;6.18;1.50;;;11.50;99.90;;;;;;5034125;28;20108;-76
2022/09/18 07:13:55;;;;;;;12.73;2.45;;;11.60;99.90;;;;;;5035668;28;20040;-76
2022/09/18 07:16:21;;;;;;;4.32;1.92;;;11.60;99.90;;;;;;5032147;28;20110;-75
2022/09/18 07:18:47;;;;;;;4.68;1.38;;;11.70;99.90;;;;;;5035553;28;20053;-76
2022/09/18 07:21:13;;;;;;;3.72;1.92;;;11.70;99.90;;;;;;5036043;28;20052;-77
2022/09/18 07:23:39;;;;;;;2.67;1.40;;;11.70;99.90;;;;;;5035174;28;20772;-77
2022/09/18 07:26:04;;;;;;;3.95;1.00;;;11.70;99.90;;;;;;5036755;28;20049;-77
2022/09/18 07:28:30;;;;;;;4.65;1.17;;;11.70;99.90;;;;;;5032405;28;20134;-78
2022/09/18 07:31:04;;;;;;;6.60;1.60;;;11.70;99.90;;;;;;5008017;28;20057;-77
2022/09/18 07:33:31;;;;;;;4.43;1.20;;;11.70;99.90;;;;;;5035738;28;20041;-78
2022/09/18 07:36:04;;;;;;;5.68;1.70;;;11.60;99.90;;;;;;5030354;28;20588;-77
2022/09/18 07:38:30;;;;;;;3.35;1.70;;;11.60;99.90;;;;;;5030715;28;20113;-76
2022/09/18 07:40:55;;;;;;;4.03;1.33;;;11.60;99.90;;;;;;5036437;28;20847;-76
2022/09/18 07:43:21;;;;;;;2.67;1.13;;;11.70;99.90;;;;;;5035859;28;20044;-76
2022/09/18 07:45:47;;;;;;;3.72;1.98;;;11.70;99.90;;;;;;5036028;28;20076;-78
2022/09/18 07:48:14;;;;;;;3.88;2.30;;;11.70;99.90;;;;;;5035241;28;20048;-77
2022/09/18 07:50:40;;;;;;;4.43;1.38;;;11.70;99.90;;;;;;5036676;28;20062;-78
2022/09/18 07:53:07;;;;;;;4.50;1.50;;;11.60;99.90;;;;;;5037621;28;20680;-78
2022/09/18 07:55:37;;;;;;;3.40;1.83;;;11.60;99.90;;;;;;5036790;28;20682;-77
2022/09/18 07:58:05;;;;;;;3.13;1.65;;;11.60;99.90;;;;;;5037258;28;20049;-83
2022/09/18 08:00:34;;;;;;;6.00;1.38;;;11.50;99.90;;;;;;5037717;28;20087;-82
2022/09/18 08:03:10;;;;;;;3.40;1.50;;;11.50;99.90;;;;;;5037982;28;20088;-80
2022/09/18 08:05:36;;;;;;;2.47;1.27;;;11.50;99.90;;;;;;5036048;28;20057;-82
2022/09/18 08:08:04;;;;;;;5.75;1.92;;;11.50;99.90;;;;;;5036236;28;20496;-82
2022/09/18 08:10:31;;;;;;;5.22;1.45;;;11.50;99.90;;;;;;5037189;28;20463;-80
2022/09/18 08:12:56;;;;;;;3.95;1.17;;;11.50;99.90;;;;;;5034952;28;20055;-80
2022/09/18 08:15:22;;;;;;;5.05;1.13;;;11.50;99.90;;;;;;5037200;28;20048;-80
2022/09/18 08:17:48;;;;;;;5.70;1.60;;;11.50;99.90;;;;;;5036133;28;20071;-80
2022/09/18 08:20:13;;;;;;;3.03;1.35;;;11.50;99.90;;;;;;5036388;28;20175;-78
2022/09/18 08:22:40;;;;;;;3.53;2.40;;;11.50;99.90;;;;;;5028861;28;20057;-79
2022/09/18 08:25:07;;;;;;;5.80;3.00;;;11.50;99.90;;;;;;5035981;28;20124;-80
2022/09/18 08:27:37;;;;;;;3.67;1.65;;;11.50;99.90;;;;;;5036524;28;20057;-81
2022/09/18 08:30:05;;;;;;;2.42;1.42;;;11.60;99.90;;;;;;5035930;28;20072;-78
2022/09/18 08:32:31;;;;;;;4.40;1.42;;;11.50;99.90;;;;;;5036363;28;20077;-78
2022/09/18 08:34:59;;;;;;;5.32;2.13;;;11.50;99.90;;;;;;5036042;28;20048;-77
2022/09/18 08:37:25;;;;;;;4.82;1.30;;;11.50;99.90;;;;;;5040428;28;20048;-77
2022/09/18 08:39:51;;;;;;;2.58;1.27;;;11.60;99.90;;;;;;5038592;28;20049;-79
2022/09/18 08:42:32;;;;;;;4.65;1.98;;;11.50;99.90;;;;;;5032453;28;20049;-76
2022/09/18 08:45:27;;;;;;;3.28;1.50;;;11.50;99.90;;;;;;5037463;28;20571;-79
2022/09/18 08:47:59;;;;;;;5.25;1.23;;;11.50;99.90;;;;;;5041140;28;20053;-78
2022/09/18 08:50:31;;;;;;;3.67;1.55;;;11.50;99.90;;;;;;5035062;28;20052;-79
2022/09/18 08:53:20;;;;;;;5.57;1.65;;;11.50;99.90;;;;;;5051744;28;20057;-78
2022/09/18 08:55:48;;;;;;;2.30;1.42;;;11.40;99.90;;;;;;5041333;28;20174;-75
2022/09/18 08:58:19;;;;;;;5.10;1.30;;;11.40;99.90;;;;;;5041238;28;20436;-76
2022/09/18 09:00:54;;;;;;;3.15;1.30;;;11.40;99.90;;;;;;5037650;28;20102;-75
2022/09/18 09:03:38;;;;;;;3.08;1.25;;;11.40;99.90;;;;;;5039993;28;20124;-75
2022/09/18 09:06:15;;;;;;;2.95;1.45;;;11.50;99.90;;;;;;5031478;28;20049;-76
2022/09/18 09:08:56;;;;;;;2.90;1.20;;;11.40;99.90;;;;;;5040384;28;20111;-78
2022/09/18 09:11:50;;;;;;;1.20;1.10;;;11.50;99.90;;;;;;5038546;28;20124;-77
2022/09/18 09:14:40;;;;;;;1.50;0.90;;;11.50;99.90;;;;;;5041907;28;20100;-77
2022/09/18 09:17:16;;;;;;;1.75;1.00;;;11.50;99.90;;;;;;5042079;28;20049;-76
2022/09/18 09:19:57;;;;;;;3.75;1.50;;;11.60;99.90;;;;;;5039968;28;20049;-77
2022/09/18 09:22:28;;;;;;;3.30;1.30;;;11.60;99.90;;;;;;5040816;28;20177;-77
2022/09/18 09:25:13;;;;;;;1.63;1.52;;;11.50;99.90;;;;;;5036375;28;20850;-76
2022/09/18 09:27:48;;;;;;;4.80;1.45;;;11.50;99.90;;;;;;5038606;28;20044;-82
2022/09/18 09:30:17;;;;;;;2.75;1.38;;;11.50;99.90;;;;;;5032507;28;20255;-75
2022/09/18 09:32:59;;;;;;;4.00;1.42;;;11.40;99.90;;;;;;5037946;28;20048;-75
2022/09/18 09:35:33;;;;;;;3.38;1.73;;;11.40;99.90;;;;;;5035099;28;20055;-76
2022/09/18 09:38:04;;;;;;;3.40;1.10;;;11.30;99.90;;;;;;5037520;28;20163;-76
2022/09/18 09:40:41;;;;;;;2.58;1.00;;;11.40;99.90;;;;;;5036203;28;20679;-75
2022/09/18 09:43:22;;;;;;;1.63;0.90;;;11.40;99.90;;;;;;5037277;28;20114;-76
2022/09/18 09:45:51;;;;;;;1.50;1.00;;;11.30;99.90;;;;;;5034968;28;20563;-76
2022/09/18 09:48:47;;;;;;;2.55;1.33;;;11.30;99.90;;;;;;5039256;28;20072;-77
2022/09/18 09:51:21;;;;;;;4.25;1.23;;;11.30;99.90;;;;;;5037139;28;20126;-77
2022/09/18 09:53:46;;;;;;;;;;;11.40;99.90;;;;;;5040508;28;20060;-78
2022/09/18 09:56:24;;;;;;;3.72;1.50;;;11.30;99.90;;;;;;5038219;28;21003;-78
2022/09/18 09:59:16;;;;;;;3.85;1.23;;;11.40;99.90;;;;;;5029713;28;20208;-76
2022/09/18 10:01:48;;;;;;;1.60;1.00;;;11.50;99.90;;;;;;5021208;28;20056;-76
2022/09/18 10:05:05;;;;;;;3.95;1.70;;;11.50;99.90;;;;;;5036803;28;20213;-77
2022/09/18 10:07:44;;;;;;;5.07;1.48;;;11.50;99.90;;;;;;5030398;28;20238;-79
2022/09/18 10:10:21;;;;;;;4.00;1.13;;;11.70;99.90;;;;;;5037534;28;20061;-77
2022/09/18 10:12:56;;;;;;;2.47;1.65;;;11.60;99.90;;;;;;5036442;28;20610;-76
2022/09/18 10:15:37;;;;;;;2.33;1.20;;;11.60;99.90;;;;;;5036085;28;20812;-77
2022/09/18 10:18:16;;;;;;;2.58;1.20;;;11.70;99.90;;;;;;5025294;28;20037;-77
2022/09/18 10:20:44;;;;;;;10.13;2.08;;;11.70;99.90;;;;;;5037780;28;20084;-77
2022/09/18 10:23:30;;;;;;;2.00;0.95;;;11.80;99.90;;;;;;5035799;28;20563;-77
2022/09/18 10:25:59;;;;;;;1.77;1.10;;;11.80;99.90;;;;;;5037075;28;20251;-77
2022/09/18 10:28:28;;;;;;;2.38;1.25;;;11.90;99.90;;;;;;5031664;28;20091;-77
2022/09/18 10:30:58;;;;;;;3.53;1.05;;;11.90;99.90;;;;;;5024118;28;20049;-77
2022/09/18 10:33:43;;;;;;;4.32;1.63;;;12.00;99.90;;;;;;5024088;28;20045;-76
2022/09/18 10:36:15;;;;;;;4.60;1.40;;;12.10;99.90;;;;;;5036703;28;21211;-77
2022/09/18 10:38:41;;;;;;;5.13;1.50;;;12.10;99.90;;;;;;5037372;28;20052;-77
2022/09/18 10:41:30;;;;;;;2.17;1.20;;;12.10;99.90;;;;;;5036092;28;20044;-77
2022/09/18 10:44:29;;;;;;;2.50;1.17;;;12.20;99.90;;;;;;5036055;28;20086;-77
2022/09/18 10:47:06;;;;;;;2.15;1.05;;;12.20;99.90;;;;;;5036085;28;20045;-77
2022/09/18 10:49:39;;;;;;;3.33;1.70;;;12.20;99.90;;;;;;5036798;28;20080;-77
2022/09/18 10:52:30;;;;;;;4.18;1.35;;;12.30;99.90;;;;;;5035681;28;20124;-76
2022/09/18 10:54:59;;;;;;;3.67;1.65;;;12.30;99.90;;;;;;5036736;28;20056;-76
2022/09/18 10:57:30;;;;;;;3.85;1.95;;;12.30;99.90;;;;;;5036127;28;20091;-76
2022/09/18 10:59:56;;;;;;;2.75;1.50;;;12.20;99.90;;;;;;5035148;28;20153;-77
2022/09/18 11:02:25;;;;;;;3.80;1.70;;;12.30;99.90;;;;;;5034895;28;20053;-77
2022/09/18 11:04:52;;;;;;;4.43;2.75;;;12.40;99.90;;;;;;5034892;28;20059;-77
2022/09/18 11:07:19;;;;;;;6.60;1.55;;;12.40;99.90;;;;;;5035694;28;20853;-76
2022/09/18 11:09:45;;;;;;;5.15;2.20;;;12.60;99.90;;;;;;5035519;28;20049;-77
2022/09/18 11:12:20;;;;;;;5.38;2.22;;;12.70;99.90;;;;;;5035224;28;20055;-77
2022/09/18 11:14:55;;;;;;;3.97;1.65;;;12.80;99.90;;;;;;5034869;28;20514;-77
2022/09/18 11:17:28;;;;;;;2.42;1.15;;;12.90;99.90;;;;;;5035484;28;20033;-76
2022/09/18 11:19:54;;;;;;;;;;;12.90;99.90;;;;;;5036001;28;20845;-77
2022/09/18 11:22:37;;;;;;;7.60;1.52;;;12.90;99.90;;;;;;5035520;28;19925;-76
2022/09/18 11:25:20;;;;;;;1.77;1.17;;;13.00;99.90;;;;;;5033701;28;20049;-77
2022/09/18 11:27:47;;;;;;;9.65;2.13;;;13.10;99.90;;;;;;5036962;28;20098;-76
2022/09/18 11:30:37;;;;;;;4.15;1.15;;;13.20;99.90;;;;;;5034497;28;20118;-77
2022/09/18 11:33:16;;;;;;;3.58;1.73;;;13.40;99.90;;;;;;5037258;28;20049;-78
2022/09/18 11:35:49;;;;;;;4.28;1.30;;;13.40;99.90;;;;;;5038441;28;20052;-81
2022/09/18 11:38:18;;;;;;;6.80;1.38;;;13.50;99.90;;;;;;5036776;28;20049;-76
2022/09/18 11:40:48;;;;;;;5.30;1.45;;;13.50;99.90;;;;;;5038539;28;20049;-81
2022/09/18 11:43:19;;;;;;;8.90;1.90;;;13.60;99.90;;;;;;5037753;28;20898;-80
2022/09/18 11:46:03;;;;;;;5.78;1.60;;;13.70;99.90;;;;;;5020328;28;20037;-79
2022/09/18 11:48:37;;;;;;;6.05;1.95;;;13.70;99.90;;;;;;5034686;28;20056;-79
2022/09/18 11:51:16;;;;;;;9.65;2.72;;;13.80;99.90;;;;;;5038301;28;20056;-81
2022/09/18 11:53:46;;;;;;;6.38;1.77;;;13.90;99.90;;;;;;5036260;28;20049;-80
2022/09/18 11:56:18;;;;;;;7.45;1.73;;;14.00;99.90;;;;;;5037928;28;20049;-80
2022/09/18 11:59:08;;;;;;;3.30;1.50;;;14.10;99.90;;;;;;5036198;28;20081;-81
2022/09/18 12:01:57;;;;;;;6.68;2.40;;;14.20;99.90;;;;;;5033907;28;20883;-80
2022/09/18 12:04:31;;;;;;;3.08;1.92;;;14.20;99.90;;;;;;5037352;28;20045;-81
2022/09/18 12:07:12;;;;;;;5.22;1.73;;;14.30;99.90;;;;;;5041331;28;20102;-80
2022/09/18 12:09:43;;;;;;;3.42;1.98;;;14.30;99.90;;;;;;5034778;28;20049;-80
2022/09/18 12:12:21;;;;;;;3.00;1.40;;;14.40;99.90;;;;;;5036135;28;20045;-79
2022/09/18 12:14:52;;;;;;;7.97;1.90;;;14.40;99.90;;;;;;5038477;28;20052;-75
2022/09/18 12:17:22;;;;;;;7.43;2.08;;;14.40;99.90;;;;;;5040736;28;20045;-81
2022/09/18 12:20:00;;;;;;;4.50;1.65;;;14.40;99.90;;;;;;5038190;28;20206;-79
2022/09/18 12:22:51;;;;;;;5.68;1.70;;;14.30;99.90;;;;;;5039776;28;20053;-79
2022/09/18 12:25:18;;;;;;;7.72;1.77;;;14.30;99.90;;;;;;5038933;28;20504;-79
2022/09/18 12:27:53;;;;;;;7.40;1.83;;;14.30;99.90;;;;;;5041096;28;20056;-79
2022/09/18 12:30:21;;;;;;;10.82;2.45;;;14.20;99.90;;;;;;5038791;28;20056;-79
2022/09/18 12:33:13;;;;;;;6.00;2.00;;;14.30;99.90;;;;;;5037578;28;20060;-78
2022/09/18 12:35:54;;;;;;;5.05;1.65;;;14.30;99.90;;;;;;5039723;28;20056;-78
2022/09/18 12:38:23;;;;;;;5.53;2.22;;;14.50;99.90;;;;;;5039280;28;20044;-79
2022/09/18 12:41:12;;;;;;;4.30;2.10;;;14.60;99.90;;;;;;5037131;28;20048;-77
2022/09/18 12:44:02;;;;;;;2.67;1.67;;;14.60;99.90;;;;;;5039078;28;20452;-76
2022/09/18 12:46:47;;;;;;;2.65;1.58;;;14.70;99.90;;;;;;5040856;28;20041;-78
2022/09/18 12:49:29;;;;;;;5.07;1.35;;;14.60;99.90;;;;;;5038977;28;20062;-80
2022/09/18 12:52:03;;;;;;;4.85;1.70;;;14.70;99.90;;;;;;5040128;28;20044;-79
2022/09/18 12:54:50;;;;;;;4.40;1.23;;;14.70;99.90;;;;;;5040214;28;20878;-79
2022/09/18 12:57:48;;;;;;;5.32;1.58;;;14.70;99.90;;;;;;5040540;28;20053;-78
2022/09/18 13:00:15;;;;;;;2.28;0.88;;;14.60;99.90;;;;;;5024249;28;20062;-79
2022/09/18 13:02:53;;;;;;;2.65;1.15;;;14.60;99.90;;;;;;5034827;28;20714;-78
2022/09/18 13:05:35;;;;;;;5.93;1.27;;;14.60;99.90;;;;;;5037869;28;20049;-79
2022/09/18 13:08:03;;;;;;;3.08;1.23;;;14.60;99.90;;;;;;5040208;28;20175;-78
2022/09/18 13:10:36;;;;;;;3.63;1.40;;;14.60;99.90;;;;;;5039906;28;20045;-78
2022/09/18 13:13:20;;;;;;;7.20;1.63;;;14.60;99.90;;;;;;5040922;28;20131;-76